< < Back
Terminal Aerodrome Forecast


Current Version              Previous Versions:   1  2  3  4  5  6  7  8  9  

Terminal Aerodrome Forecast

175
FTUS42 KFFC 191120
TAFAHN
TAF
KAHN 191120Z 1912/2012 14003KT 4SM -RA BR OVC003
     FM191500 16005KT 6SM BR VCSH OVC008
     FM191800 19010KT P6SM -SHRA BKN012 OVC025
      TEMPO 1921/1923 4SM -TSRA BKN010CB
     FM192300 22010KT P6SM VCSH BKN030
     FM200200 23006KT P6SM VCSH BKN015=



Latest METAR

915
SAUS70 KWBC 191200
MTRAHN
METAR KAHN 191151Z 00000KT 5SM -RA BR OVC003 19/18 A2988 RMK AO2 SLP114
P0012 60032 70033 T01890183 10189 20183 58000


USA.gov is the U.S. government's official web portal to all federal, state and local government web resources and services.